METAR Data
IDs: Format: Raw Decoded Include TAF

Data at: 0100 UTC 24 May 2019

Region: TOP
KATL 240052Z 19005KT 10SM FEW050TCU SCT070 SCT250 29/19 A3016 RMK AO2 SLP203 TCU NW-N T02940189 $

KBOS 240054Z 22012KT 10SM BKN016 OVC100 16/13 A2984 RMK AO2 RAB28E43 SLP105 P0000 T01610128

KBWI 240054Z 23006KT 10SM SCT140 BKN210 22/19 A2994 RMK AO2 SLP136 CB DSNT SW AND DSNT NW MOV SE T02220194 $

KCLE 240051Z 29010KT 10SM FEW055 23/12 A3000 RMK AO2 SLP155 T02280122

KCLT 240052Z 21004KT 10SM FEW120 BKN250 26/21 A3014 RMK AO2 SLP199 T02560211

KCVG 240052Z 20006KT 10SM FEW039 FEW250 24/21 A3007 RMK AO2 SLP172 MDT CU DSNT SE T02390206

KDCA 240052Z 19007KT 10SM FEW075 BKN250 22/20 A2997 RMK AO2 SLP149 T02220200

KDEN 240053Z 14007KT 10SM FEW018 OVC025 07/04 A2991 RMK AO2 SLP110 T00720039

KDFW 240053Z 13016G25KT 10SM FEW055 29/21 A2989 RMK AO2 PK WND 15027/2354 SLP112 T02940211

KDTW 240053Z 28011KT 10SM FEW055 SCT250 21/08 A3001 RMK AO2 SLP159 T02060078

KEWR 240051Z 19006KT 10SM FEW040 FEW130 BKN250 19/18 A2987 RMK AO2 SLP114 T01940178 $

KFLL 240053Z 06014KT 10SM SCT035 26/18 A3008 RMK AO2 SLP187 T02560178

KIAD 240052Z 18007KT 10SM FEW070 FEW140 SCT250 22/19 A2997 RMK AO2 SLP146 T02220194 $

KIAH 240053Z 13017KT 10SM SCT017 SCT035 BKN050 27/24 A2999 RMK AO2 PK WND 13026/0004 SLP154 T02720244

KJFK 240051Z 18009KT 10SM FEW035 FEW080 BKN250 16/16 A2989 RMK AO2 SLP122 T01560156

KLAS 240056Z 19013G21KT 10SM FEW060 BKN100 BKN150 19/04 A2988 RMK AO2 SLP107 T01890044

KLAX 240053Z 25006KT 10SM OVC038 16/09 A3000 RMK AO2 SLP157 T01610094

KLGA 240051Z 19007KT 10SM FEW040 SCT130 BKN250 19/16 A2986 RMK AO2 SLP112 T01890161 $

KMCO 240053Z 06010KT 10SM FEW036 25/17 A3016 RMK AO2 SLP210 T02500172

KMDW 240053Z 30010KT 10SM FEW250 22/09 A3005 RMK AO2 SLP170 T02220089

KMEM 240054Z 16009KT 10SM CLR 29/19 A3008 RMK AO2 SLP181 T02890189 $

KMIA 240053Z 04010G18KT 10SM SCT034 27/19 A3009 RMK AO2 SLP188 T02670189

KMSP 240053Z 28006KT 10SM OVC043 14/08 A3011 RMK AO2 SLP198 T01390078

KORD 240051Z 27006KT 10SM FEW250 22/10 A3005 RMK AO2 SLP172 T02170100

KPDX 240053Z 32007KT 10SM FEW060 SCT090 SCT200 27/10 A2987 RMK AO2 SLP113 T02670100

KPHL 240054Z 22011KT 10SM SCT250 23/18 A2992 RMK AO2 SLP130 T02280178 $

KPHX 240051Z 28004KT 10SM FEW090 24/01 A2990 RMK AO2 SLP113 T02390011

KPIT 240051Z 25009KT 10SM FEW065 FEW250 25/19 A2996 RMK AO2 SLP143 CB DSNT E T02500189

KSAN 240051Z 26007KT 10SM FEW038 FEW060 SCT250 19/09 A3001 RMK AO2 SLP162 T01890094

KSEA 240053Z 19005KT 10SM FEW045 FEW080 SCT250 24/12 A2989 RMK AO2 SLP126 T02440117

KSFO 240056Z 20009KT 10SM FEW018 FEW060 SCT150 18/11 A2985 RMK AO2 SLP109 T01780106

KSLC 240054Z 15013KT 9SM -RA FEW026 BKN043 OVC060 09/06 A2983 RMK AO2 RAB19 SLP085 P0000 T00890056 VISNO NW RNWY

KSTL 240051Z 11006KT 10SM SCT055 BKN150 BKN250 25/19 A3006 RMK AO2 SLP169 ACC ALDQS T02500189

KTPA 240053Z 07011G17KT 10SM FEW050 28/17 A3012 RMK AO2 SLP199 T02830167 $